sensor_id;sensor_type;location;lat;lon;timestamp;pressure;altitude;pressure_sealevel;temperature;humidity
50592;BME280;36548;50.506;30.834;2022-08-19T00:01:04;99680.93;;;22.00;61.13
50592;BME280;36548;50.506;30.834;2022-08-19T00:02:31;99688.59;;;22.05;61.08
50592;BME280;36548;50.506;30.834;2022-08-19T00:03:47;99687.08;;;22.17;60.90
50592;BME280;36548;50.506;30.834;2022-08-19T00:04:57;99692.73;;;22.01;61.09
50592;BME280;36548;50.506;30.834;2022-08-19T00:06:33;99691.70;;;22.02;61.40
50592;BME280;36548;50.506;30.834;2022-08-19T00:07:44;99697.44;;;21.92;61.35
50592;BME280;36548;50.506;30.834;2022-08-19T00:08:59;99691.51;;;22.03;61.34
50592;BME280;36548;50.506;30.834;2022-08-19T00:10:12;99689.89;;;21.94;61.16
50592;BME280;36548;50.506;30.834;2022-08-19T00:11:23;99688.67;;;21.96;61.26
50592;BME280;36548;50.506;30.834;2022-08-19T00:12:34;99697.33;;;22.00;61.24
50592;BME280;36548;50.506;30.834;2022-08-19T00:13:52;99690.29;;;22.06;61.24
50592;BME280;36548;50.506;30.834;2022-08-19T00:15:06;99695.84;;;21.98;61.22
50592;BME280;36548;50.506;30.834;2022-08-19T00:16:25;99698.28;;;21.92;61.63
50592;BME280;36548;50.506;30.834;2022-08-19T00:17:35;99705.23;;;21.80;61.88
50592;BME280;36548;50.506;30.834;2022-08-19T00:18:47;99709.29;;;21.84;61.83
50592;BME280;36548;50.506;30.834;2022-08-19T00:19:58;99706.82;;;21.74;62.05
50592;BME280;36548;50.506;30.834;2022-08-19T00:21:09;99707.84;;;21.73;62.03
50592;BME280;36548;50.506;30.834;2022-08-19T00:22:24;99702.88;;;21.77;62.41
50592;BME280;36548;50.506;30.834;2022-08-19T00:23:35;99702.95;;;21.69;62.39
50592;BME280;36548;50.506;30.834;2022-08-19T00:24:52;99701.28;;;21.83;62.17
50592;BME280;36548;50.506;30.834;2022-08-19T00:26:04;99708.03;;;21.72;62.10
50592;BME280;36548;50.506;30.834;2022-08-19T00:27:32;99708.48;;;21.60;62.53
50592;BME280;36548;50.506;30.834;2022-08-19T00:28:42;99705.87;;;21.67;62.51
50592;BME280;36548;50.506;30.834;2022-08-19T00:29:57;99699.58;;;21.82;62.43
50592;BME280;36548;50.506;30.834;2022-08-19T00:31:08;99700.30;;;21.60;62.57
50592;BME280;36548;50.506;30.834;2022-08-19T00:32:20;99697.75;;;21.59;62.73
50592;BME280;36548;50.506;30.834;2022-08-19T00:33:36;99699.49;;;21.52;62.96
50592;BME280;36548;50.506;30.834;2022-08-19T00:34:52;99691.84;;;21.70;62.74
50592;BME280;36548;50.506;30.834;2022-08-19T00:36:05;99697.75;;;21.59;62.71
50592;BME280;36548;50.506;30.834;2022-08-19T00:37:16;99691.64;;;21.49;63.06
50592;BME280;36548;50.506;30.834;2022-08-19T00:38:33;99699.15;;;21.55;63.37
50592;BME280;36548;50.506;30.834;2022-08-19T00:39:44;99701.48;;;21.35;63.46
50592;BME280;36548;50.506;30.834;2022-08-19T00:40:56;99694.50;;;21.32;63.75
50592;BME280;36548;50.506;30.834;2022-08-19T00:42:05;99697.17;;;21.40;63.48
50592;BME280;36548;50.506;30.834;2022-08-19T00:43:24;99699.25;;;21.38;63.98
50592;BME280;36548;50.506;30.834;2022-08-19T00:44:35;99693.17;;;21.28;63.95
50592;BME280;36548;50.506;30.834;2022-08-19T00:45:45;99705.27;;;21.34;63.84
50592;BME280;36548;50.506;30.834;2022-08-19T00:46:58;99697.42;;;21.31;63.83
50592;BME280;36548;50.506;30.834;2022-08-19T00:48:09;99709.98;;;21.40;63.70
50592;BME280;36548;50.506;30.834;2022-08-19T00:50:57;99705.92;;;21.36;63.53
50592;BME280;36548;50.506;30.834;2022-08-19T00:52:11;99702.17;;;21.37;63.75
50592;BME280;36548;50.506;30.834;2022-08-19T00:53:24;99703.01;;;21.37;63.64
50592;BME280;36548;50.506;30.834;2022-08-19T00:54:36;99695.13;;;21.42;63.45
50592;BME280;36548;50.506;30.834;2022-08-19T00:55:48;99696.15;;;21.41;63.36
50592;BME280;36548;50.506;30.834;2022-08-19T00:57:01;99702.70;;;21.32;63.70
50592;BME280;36548;50.506;30.834;2022-08-19T00:58:15;99710.30;;;21.45;63.60
50592;BME280;36548;50.506;30.834;2022-08-19T00:59:34;99695.73;;;21.53;63.38
50592;BME280;36548;50.506;30.834;2022-08-19T01:00:48;99706.23;;;21.41;63.35
50592;BME280;36548;50.506;30.834;2022-08-19T01:02:04;99699.49;;;21.52;63.26
50592;BME280;36548;50.506;30.834;2022-08-19T01:03:23;99708.41;;;21.45;63.37
50592;BME280;36548;50.506;30.834;2022-08-19T01:04:50;99709.23;;;21.46;63.05
50592;BME280;36548;50.506;30.834;2022-08-19T01:06:07;99702.75;;;21.47;63.43
50592;BME280;36548;50.506;30.834;2022-08-19T01:07:17;99707.56;;;21.45;63.43
50592;BME280;36548;50.506;30.834;2022-08-19T01:08:27;99707.38;;;21.46;63.08
50592;BME280;36548;50.506;30.834;2022-08-19T01:09:37;99705.86;;;21.44;63.13
50592;BME280;36548;50.506;30.834;2022-08-19T01:10:56;99701.69;;;21.56;63.13
50592;BME280;36548;50.506;30.834;2022-08-19T01:12:06;99708.28;;;21.39;63.30
50592;BME280;36548;50.506;30.834;2022-08-19T01:13:20;99708.09;;;21.40;63.24
50592;BME280;36548;50.506;30.834;2022-08-19T01:14:30;99703.37;;;21.34;63.60
50592;BME280;36548;50.506;30.834;2022-08-19T01:15:44;99705.55;;;21.39;63.52
50592;BME280;36548;50.506;30.834;2022-08-19T01:17:02;99706.48;;;21.31;63.94
50592;BME280;36548;50.506;30.834;2022-08-19T01:18:13;99702.22;;;21.05;64.46
50592;BME280;36548;50.506;30.834;2022-08-19T01:19:28;99711.37;;;21.12;64.26
50592;BME280;36548;50.506;30.834;2022-08-19T01:20:45;99698.41;;;21.15;64.41
50592;BME280;36548;50.506;30.834;2022-08-19T01:22:01;99707.48;;;21.07;64.55
50592;BME280;36548;50.506;30.834;2022-08-19T01:23:17;99705.31;;;21.02;65.00
50592;BME280;36548;50.506;30.834;2022-08-19T01:24:27;99709.98;;;20.93;64.98
50592;BME280;36548;50.506;30.834;2022-08-19T01:25:54;99710.45;;;20.97;64.99
50592;BME280;36548;50.506;30.834;2022-08-19T01:27:07;99712.94;;;20.84;65.54
50592;BME280;36548;50.506;30.834;2022-08-19T01:28:27;99707.07;;;20.95;65.58
50592;BME280;36548;50.506;30.834;2022-08-19T01:29:41;99706.80;;;20.82;65.47
50592;BME280;36548;50.506;30.834;2022-08-19T01:30:57;99711.41;;;20.81;65.79
50592;BME280;36548;50.506;30.834;2022-08-19T01:32:10;99710.77;;;20.63;66.24
50592;BME280;36548;50.506;30.834;2022-08-19T01:33:38;99710.12;;;20.60;66.28
50592;BME280;36548;50.506;30.834;2022-08-19T01:34:53;99704.48;;;20.62;66.53
50592;BME280;36548;50.506;30.834;2022-08-19T01:36:08;99701.75;;;20.62;66.41
50592;BME280;36548;50.506;30.834;2022-08-19T01:37:18;99702.48;;;20.56;66.49
50592;BME280;36548;50.506;30.834;2022-08-19T01:38:30;99700.80;;;20.47;66.82
50592;BME280;36548;50.506;30.834;2022-08-19T01:39:43;99713.95;;;20.35;67.34
50592;BME280;36548;50.506;30.834;2022-08-19T01:40:53;99701.67;;;20.39;67.21
50592;BME280;36548;50.506;30.834;2022-08-19T01:42:03;99708.33;;;20.36;67.38
50592;BME280;36548;50.506;30.834;2022-08-19T01:43:19;99698.08;;;20.47;67.44
50592;BME280;36548;50.506;30.834;2022-08-19T01:44:30;99718.41;;;20.27;67.50
50592;BME280;36548;50.506;30.834;2022-08-19T01:45:39;99703.80;;;20.20;67.95
50592;BME280;36548;50.506;30.834;2022-08-19T01:46:49;99705.51;;;20.21;67.73
50592;BME280;36548;50.506;30.834;2022-08-19T01:48:04;99700.84;;;20.38;67.58
50592;BME280;36548;50.506;30.834;2022-08-19T01:49:15;99705.15;;;20.24;67.70
50592;BME280;36548;50.506;30.834;2022-08-19T01:50:31;99692.66;;;20.38;67.55
50592;BME280;36548;50.506;30.834;2022-08-19T01:51:41;99703.05;;;20.35;67.54
50592;BME280;36548;50.506;30.834;2022-08-19T01:53:10;99687.72;;;20.42;67.27
50592;BME280;36548;50.506;30.834;2022-08-19T01:54:27;99702.33;;;20.49;67.11
50592;BME280;36548;50.506;30.834;2022-08-19T01:55:40;99703.71;;;20.45;67.00
50592;BME280;36548;50.506;30.834;2022-08-19T01:56:51;99696.73;;;20.42;66.89
50592;BME280;36548;50.506;30.834;2022-08-19T01:58:04;99700.80;;;20.47;66.80
50592;BME280;36548;50.506;30.834;2022-08-19T01:59:17;99704.02;;;20.50;66.74
50592;BME280;36548;50.506;30.834;2022-08-19T02:00:33;99687.75;;;20.65;66.51
50592;BME280;36548;50.506;30.834;2022-08-19T02:01:44;99699.39;;;20.59;66.39
50592;BME280;36548;50.506;30.834;2022-08-19T02:03:01;99696.62;;;20.75;66.52
50592;BME280;36548;50.506;30.834;2022-08-19T02:04:18;99703.94;;;20.67;66.11
50592;BME280;36548;50.506;30.834;2022-08-19T02:05:28;99701.57;;;20.64;65.98
50592;BME280;36548;50.506;30.834;2022-08-19T02:06:39;99696.84;;;20.57;66.17
50592;BME280;36548;50.506;30.834;2022-08-19T02:07:56;99689.14;;;20.61;66.49
50592;BME280;36548;50.506;30.834;2022-08-19T02:09:07;99693.97;;;20.51;66.54
50592;BME280;36548;50.506;30.834;2022-08-19T02:10:20;99691.72;;;20.54;66.32
50592;BME280;36548;50.506;30.834;2022-08-19T02:11:33;99699.75;;;20.56;66.38
50592;BME280;36548;50.506;30.834;2022-08-19T02:12:43;99697.17;;;20.54;66.39
50592;BME280;36548;50.506;30.834;2022-08-19T02:13:54;99697.06;;;20.48;66.51
50592;BME280;36548;50.506;30.834;2022-08-19T02:15:06;99700.77;;;20.55;66.33
50592;BME280;36548;50.506;30.834;2022-08-19T02:16:18;99697.54;;;20.51;66.33
50592;BME280;36548;50.506;30.834;2022-08-19T02:17:28;99700.08;;;20.53;66.31
50592;BME280;36548;50.506;30.834;2022-08-19T02:18:38;99697.50;;;20.59;66.27
50592;BME280;36548;50.506;30.834;2022-08-19T02:19:48;99687.61;;;20.58;66.12
50592;BME280;36548;50.506;30.834;2022-08-19T02:20:58;99697.50;;;20.59;65.91
50592;BME280;36548;50.506;30.834;2022-08-19T02:22:08;99695.17;;;20.48;66.30
50592;BME280;36548;50.506;30.834;2022-08-19T02:23:18;99692.73;;;20.61;66.17
50592;BME280;36548;50.506;30.834;2022-08-19T02:24:27;99698.19;;;20.61;65.83
50592;BME280;36548;50.506;30.834;2022-08-19T02:25:38;99693.11;;;20.50;65.98
50592;BME280;36548;50.506;30.834;2022-08-19T02:26:47;99692.05;;;20.59;65.92
50592;BME280;36548;50.506;30.834;2022-08-19T02:27:57;99688.77;;;20.64;65.69
50592;BME280;36548;50.506;30.834;2022-08-19T02:29:12;99683.45;;;20.79;65.41
50592;BME280;36548;50.506;30.834;2022-08-19T02:30:24;99684.36;;;20.71;65.46
50592;BME280;36548;50.506;30.834;2022-08-19T02:31:39;99686.17;;;20.79;65.20
50592;BME280;36548;50.506;30.834;2022-08-19T02:32:49;99683.86;;;20.68;65.27
50592;BME280;36548;50.506;30.834;2022-08-19T02:34:16;99693.20;;;20.73;65.53
50592;BME280;36548;50.506;30.834;2022-08-19T02:35:32;99682.75;;;20.85;65.61
50592;BME280;36548;50.506;30.834;2022-08-19T02:36:41;99692.04;;;20.68;64.99
50592;BME280;36548;50.506;30.834;2022-08-19T02:37:57;99689.88;;;20.86;65.01
50592;BME280;36548;50.506;30.834;2022-08-19T02:39:24;99692.18;;;20.74;64.93
50592;BME280;36548;50.506;30.834;2022-08-19T02:40:35;99701.89;;;20.77;65.01
50592;BME280;36548;50.506;30.834;2022-08-19T02:41:46;99691.67;;;20.71;65.11
50592;BME280;36548;50.506;30.834;2022-08-19T02:42:56;99686.55;;;20.76;65.04
50592;BME280;36548;50.506;30.834;2022-08-19T02:44:07;99688.45;;;20.67;64.96
50592;BME280;36548;50.506;30.834;2022-08-19T02:45:19;99690.73;;;20.47;65.68
50592;BME280;36548;50.506;30.834;2022-08-19T02:46:31;99687.54;;;20.43;65.84
50592;BME280;36548;50.506;30.834;2022-08-19T02:47:48;99692.45;;;20.48;66.28
50592;BME280;36548;50.506;30.834;2022-08-19T02:49:00;99693.17;;;20.42;65.92
50592;BME280;36548;50.506;30.834;2022-08-19T02:50:10;99701.20;;;20.35;66.12
50592;BME280;36548;50.506;30.834;2022-08-19T02:51:22;99703.11;;;20.18;66.80
50592;BME280;36548;50.506;30.834;2022-08-19T02:52:34;99708.91;;;20.15;66.81
50592;BME280;36548;50.506;30.834;2022-08-19T02:53:50;99694.58;;;20.30;66.94
50592;BME280;36548;50.506;30.834;2022-08-19T02:54:59;99706.39;;;20.05;67.29
50592;BME280;36548;50.506;30.834;2022-08-19T02:56:10;99701.27;;;20.10;67.13
50592;BME280;36548;50.506;30.834;2022-08-19T02:57:20;99698.56;;;20.02;67.27
50592;BME280;36548;50.506;30.834;2022-08-19T02:58:30;99702.15;;;19.95;67.50
50592;BME280;36548;50.506;30.834;2022-08-19T02:59:46;99699.74;;;20.08;67.49
50592;BME280;36548;50.506;30.834;2022-08-19T03:00:56;99696.86;;;20.01;67.29
50592;BME280;36548;50.506;30.834;2022-08-19T03:02:12;99694.80;;;20.12;67.53
50592;BME280;36548;50.506;30.834;2022-08-19T03:03:22;99696.72;;;19.86;67.77
50592;BME280;36548;50.506;30.834;2022-08-19T03:04:50;99704.20;;;19.92;67.78
50592;BME280;36548;50.506;30.834;2022-08-19T03:06:06;99703.02;;;19.95;67.58
50592;BME280;36548;50.506;30.834;2022-08-19T03:07:16;99703.20;;;19.85;67.80
50592;BME280;36548;50.506;30.834;2022-08-19T03:08:27;99703.39;;;19.84;67.88
50592;BME280;36548;50.506;30.834;2022-08-19T03:09:38;99709.66;;;19.92;67.70
50592;BME280;36548;50.506;30.834;2022-08-19T03:10:48;99704.05;;;19.86;67.80
50592;BME280;36548;50.506;30.834;2022-08-19T03:11:57;99697.94;;;19.84;67.77
50592;BME280;36548;50.506;30.834;2022-08-19T03:13:06;99702.16;;;19.86;67.75
50592;BME280;36548;50.506;30.834;2022-08-19T03:14:16;99704.87;;;19.95;67.46
50592;BME280;36548;50.506;30.834;2022-08-19T03:15:26;99708.64;;;19.93;67.45
50592;BME280;36548;50.506;30.834;2022-08-19T03:16:43;99710.84;;;19.98;67.38
50592;BME280;36548;50.506;30.834;2022-08-19T03:17:59;99697.51;;;20.20;67.44
50592;BME280;36548;50.506;30.834;2022-08-19T03:19:10;99708.08;;;20.15;66.80
50592;BME280;36548;50.506;30.834;2022-08-19T03:20:25;99698.77;;;20.40;66.74
50592;BME280;36548;50.506;30.834;2022-08-19T03:21:35;99706.98;;;20.32;66.12
50592;BME280;36548;50.506;30.834;2022-08-19T03:23:05;99713.12;;;20.34;66.01
50592;BME280;36548;50.506;30.834;2022-08-19T03:24:21;99705.45;;;20.38;66.25
50592;BME280;36548;50.506;30.834;2022-08-19T03:25:36;99714.31;;;20.32;66.12
50592;BME280;36548;50.506;30.834;2022-08-19T03:26:49;99715.03;;;20.25;66.12
50592;BME280;36548;50.506;30.834;2022-08-19T03:28:06;99711.35;;;20.50;65.93
50592;BME280;36548;50.506;30.834;2022-08-19T03:29:17;99715.00;;;20.34;66.15
50592;BME280;36548;50.506;30.834;2022-08-19T03:30:30;99713.23;;;20.49;66.14
50592;BME280;36548;50.506;30.834;2022-08-19T03:31:46;99705.50;;;20.61;65.58
50592;BME280;36548;50.506;30.834;2022-08-19T03:32:58;99710.48;;;20.57;65.45
50592;BME280;36548;50.506;30.834;2022-08-19T03:34:10;99706.62;;;20.43;65.45
50592;BME280;36548;50.506;30.834;2022-08-19T03:35:21;99715.27;;;20.47;65.45
50592;BME280;36548;50.506;30.834;2022-08-19T03:36:32;99722.73;;;20.61;65.30
50592;BME280;36548;50.506;30.834;2022-08-19T03:37:41;99722.77;;;20.53;65.15
50592;BME280;36548;50.506;30.834;2022-08-19T03:38:54;99718.66;;;20.57;65.09
50592;BME280;36548;50.506;30.834;2022-08-19T03:40:07;99722.95;;;20.52;65.27
50592;BME280;36548;50.506;30.834;2022-08-19T03:41:29;99716.73;;;20.74;65.00
50592;BME280;36548;50.506;30.834;2022-08-19T03:42:41;99723.02;;;20.75;64.58
50592;BME280;36548;50.506;30.834;2022-08-19T03:43:53;99730.42;;;20.98;63.92
50592;BME280;36548;50.506;30.834;2022-08-19T03:45:05;99729.87;;;21.02;63.41
50592;BME280;36548;50.506;30.834;2022-08-19T03:46:25;99725.89;;;21.13;63.19
50592;BME280;36548;50.506;30.834;2022-08-19T03:47:34;99727.14;;;21.02;63.24
50592;BME280;36548;50.506;30.834;2022-08-19T03:48:44;99728.38;;;21.23;62.70
50592;BME280;36548;50.506;30.834;2022-08-19T03:49:53;99731.92;;;21.55;61.86
50592;BME280;36548;50.506;30.834;2022-08-19T03:51:28;99727.39;;;21.85;61.03
50592;BME280;36548;50.506;30.834;2022-08-19T03:52:39;99728.14;;;21.94;60.29
50592;BME280;36548;50.506;30.834;2022-08-19T03:53:53;99730.99;;;22.30;59.69
50592;BME280;36548;50.506;30.834;2022-08-19T03:55:04;99738.59;;;22.43;58.45
50592;BME280;36548;50.506;30.834;2022-08-19T03:56:15;99729.32;;;22.59;57.93
50592;BME280;36548;50.506;30.834;2022-08-19T03:57:31;99727.91;;;23.00;58.19
50592;BME280;36548;50.506;30.834;2022-08-19T03:58:42;99727.86;;;22.93;56.79
50592;BME280;36548;50.506;30.834;2022-08-19T03:59:53;99737.27;;;23.06;56.76
50592;BME280;36548;50.506;30.834;2022-08-19T04:01:12;99729.87;;;23.43;57.38
50592;BME280;36548;50.506;30.834;2022-08-19T04:02:27;99729.87;;;23.64;55.06
50592;BME280;36548;50.506;30.834;2022-08-19T04:03:38;99740.56;;;23.59;54.62
50592;BME280;36548;50.506;30.834;2022-08-19T04:04:48;99739.12;;;23.63;54.76
50592;BME280;36548;50.506;30.834;2022-08-19T04:05:57;99743.16;;;23.46;55.08
50592;BME280;36548;50.506;30.834;2022-08-19T04:07:09;99750.34;;;23.47;55.13
50592;BME280;36548;50.506;30.834;2022-08-19T04:08:25;99747.28;;;23.57;54.80
50592;BME280;36548;50.506;30.834;2022-08-19T04:09:36;99761.11;;;23.70;54.43
50592;BME280;36548;50.506;30.834;2022-08-19T04:10:49;99760.37;;;23.83;53.75
50592;BME280;36548;50.506;30.834;2022-08-19T04:11:58;99751.74;;;24.08;54.36
50592;BME280;36548;50.506;30.834;2022-08-19T04:13:08;99756.59;;;23.84;53.50
50592;BME280;36548;50.506;30.834;2022-08-19T04:14:20;99758.37;;;23.70;54.23
50592;BME280;36548;50.506;30.834;2022-08-19T04:15:41;99768.08;;;23.94;53.68
50592;BME280;36548;50.506;30.834;2022-08-19T04:16:52;99765.41;;;23.79;54.16
50592;BME280;36548;50.506;30.834;2022-08-19T04:18:02;99762.95;;;23.63;54.22
50592;BME280;36548;50.506;30.834;2022-08-19T04:19:20;99756.56;;;23.56;54.56
50592;BME280;36548;50.506;30.834;2022-08-19T04:21:58;99761.09;;;23.92;55.47
50592;BME280;36548;50.506;30.834;2022-08-19T04:23:08;99766.86;;;23.75;53.82
50592;BME280;36548;50.506;30.834;2022-08-19T04:24:18;99772.00;;;23.85;54.91
50592;BME280;36548;50.506;30.834;2022-08-19T04:25:39;99768.80;;;23.81;53.70
50592;BME280;36548;50.506;30.834;2022-08-19T04:26:55;99776.18;;;23.81;54.29
50592;BME280;36548;50.506;30.834;2022-08-19T04:28:23;99770.31;;;23.41;55.10
50592;BME280;36548;50.506;30.834;2022-08-19T04:29:33;99766.45;;;23.57;54.95
50592;BME280;36548;50.506;30.834;2022-08-19T04:30:47;99773.03;;;23.84;54.79
50592;BME280;36548;50.506;30.834;2022-08-19T04:32:03;99759.34;;;24.06;53.44
50592;BME280;36548;50.506;30.834;2022-08-19T04:33:17;99759.22;;;23.92;53.63
50592;BME280;36548;50.506;30.834;2022-08-19T04:34:29;99760.70;;;23.73;53.38
50592;BME280;36548;50.506;30.834;2022-08-19T04:35:46;99757.92;;;23.88;53.96
50592;BME280;36548;50.506;30.834;2022-08-19T04:36:58;99761.09;;;23.92;53.63
50592;BME280;36548;50.506;30.834;2022-08-19T04:38:08;99760.60;;;24.10;53.05
50592;BME280;36548;50.506;30.834;2022-08-19T04:39:30;99767.36;;;24.07;52.82
50592;BME280;36548;50.506;30.834;2022-08-19T04:41:06;99759.52;;;24.32;53.19
50592;BME280;36548;50.506;30.834;2022-08-19T04:42:33;99761.16;;;24.27;52.32
50592;BME280;36548;50.506;30.834;2022-08-19T04:43:56;99765.77;;;24.55;52.85
50592;BME280;36548;50.506;30.834;2022-08-19T04:45:11;99763.65;;;24.57;52.36
50592;BME280;36548;50.506;30.834;2022-08-19T04:46:40;99765.47;;;24.71;52.30
50592;BME280;36548;50.506;30.834;2022-08-19T04:47:55;99757.69;;;24.81;50.99
50592;BME280;36548;50.506;30.834;2022-08-19T04:49:09;99766.76;;;24.82;51.26
50592;BME280;36548;50.506;30.834;2022-08-19T04:50:25;99753.66;;;24.77;51.75
50592;BME280;36548;50.506;30.834;2022-08-19T04:51:36;99749.94;;;24.98;51.40
50592;BME280;36548;50.506;30.834;2022-08-19T04:52:52;99762.30;;;25.29;51.27
50592;BME280;36548;50.506;30.834;2022-08-19T04:54:03;99757.06;;;24.86;50.51
50592;BME280;36548;50.506;30.834;2022-08-19T04:55:13;99759.80;;;24.79;51.13
50592;BME280;36548;50.506;30.834;2022-08-19T04:56:30;99760.70;;;25.00;51.88
50592;BME280;36548;50.506;30.834;2022-08-19T04:57:39;99759.84;;;24.93;50.78
50592;BME280;36548;50.506;30.834;2022-08-19T04:58:57;99757.09;;;24.93;51.16
50592;BME280;36548;50.506;30.834;2022-08-19T05:00:11;99753.69;;;24.84;50.83
50592;BME280;36548;50.506;30.834;2022-08-19T05:01:27;99754.64;;;25.11;50.98
50592;BME280;36548;50.506;30.834;2022-08-19T05:02:38;99750.41;;;25.09;50.79
50592;BME280;36548;50.506;30.834;2022-08-19T05:04:06;99749.36;;;25.16;50.90
50592;BME280;36548;50.506;30.834;2022-08-19T05:05:17;99758.12;;;25.33;50.35
50592;BME280;36548;50.506;30.834;2022-08-19T05:06:33;99755.08;;;25.22;49.97
50592;BME280;36548;50.506;30.834;2022-08-19T05:07:42;99763.72;;;25.12;50.91
50592;BME280;36548;50.506;30.834;2022-08-19T05:08:55;99753.36;;;25.07;50.06
50592;BME280;36548;50.506;30.834;2022-08-19T05:10:06;99753.36;;;25.07;50.06
50592;BME280;36548;50.506;30.834;2022-08-19T05:11:19;99766.92;;;25.29;50.57
50592;BME280;36548;50.506;30.834;2022-08-19T05:12:31;99768.70;;;25.43;49.86
50592;BME280;36548;50.506;30.834;2022-08-19T05:13:41;99770.62;;;25.56;49.69
50592;BME280;36548;50.506;30.834;2022-08-19T05:14:51;99763.65;;;25.60;48.81
50592;BME280;36548;50.506;30.834;2022-08-19T05:16:01;99765.13;;;25.63;49.22
50592;BME280;36548;50.506;30.834;2022-08-19T05:17:17;99748.66;;;25.69;48.74
50592;BME280;36548;50.506;30.834;2022-08-19T05:18:28;99765.53;;;25.60;49.19
50592;BME280;36548;50.506;30.834;2022-08-19T05:20:03;99757.95;;;25.75;49.52
50592;BME280;36548;50.506;30.834;2022-08-19T05:21:32;99767.27;;;25.81;48.82
50592;BME280;36548;50.506;30.834;2022-08-19T05:23:06;99752.48;;;26.15;48.91
50592;BME280;36548;50.506;30.834;2022-08-19T05:24:19;99761.77;;;26.21;48.17
50592;BME280;36548;50.506;30.834;2022-08-19T05:25:28;99765.14;;;26.30;48.43
50592;BME280;36548;50.506;30.834;2022-08-19T05:26:46;99764.89;;;26.51;47.57
50592;BME280;36548;50.506;30.834;2022-08-19T05:27:57;99762.38;;;26.43;47.52
50592;BME280;36548;50.506;30.834;2022-08-19T05:29:14;99767.59;;;26.65;47.04
50592;BME280;36548;50.506;30.834;2022-08-19T05:30:26;99762.97;;;26.59;47.67
50592;BME280;36548;50.506;30.834;2022-08-19T05:31:53;99764.23;;;26.56;46.86
50592;BME280;36548;50.506;30.834;2022-08-19T05:33:03;99767.81;;;26.63;46.94
50592;BME280;36548;50.506;30.834;2022-08-19T05:34:16;99768.03;;;26.62;46.82
50592;BME280;36548;50.506;30.834;2022-08-19T05:35:32;99765.23;;;26.82;47.11
50592;BME280;36548;50.506;30.834;2022-08-19T05:36:44;99768.42;;;26.79;46.75
50592;BME280;36548;50.506;30.834;2022-08-19T05:37:54;99774.98;;;26.78;46.32
50592;BME280;36548;50.506;30.834;2022-08-19T05:39:15;99775.53;;;27.00;46.50
50592;BME280;36548;50.506;30.834;2022-08-19T05:40:25;99783.69;;;26.75;46.43
50592;BME280;36548;50.506;30.834;2022-08-19T05:43:00;99782.96;;;26.99;46.55
50592;BME280;36548;50.506;30.834;2022-08-19T05:44:10;99791.44;;;26.98;46.45
50592;BME280;36548;50.506;30.834;2022-08-19T05:45:20;99781.50;;;26.90;45.92
50592;BME280;36548;50.506;30.834;2022-08-19T05:46:31;99781.91;;;27.00;46.04
50592;BME280;36548;50.506;30.834;2022-08-19T05:47:41;99789.55;;;26.92;45.65
50592;BME280;36548;50.506;30.834;2022-08-19T05:48:51;99778.75;;;26.90;46.36
50592;BME280;36548;50.506;30.834;2022-08-19T05:50:02;99785.29;;;26.96;46.41
50592;BME280;36548;50.506;30.834;2022-08-19T05:51:18;99774.59;;;26.74;46.33
50592;BME280;36548;50.506;30.834;2022-08-19T05:52:28;99788.12;;;26.69;46.34
50592;BME280;36548;50.506;30.834;2022-08-19T05:53:38;99783.08;;;26.52;47.24
50592;BME280;36548;50.506;30.834;2022-08-19T05:54:54;99783.29;;;26.71;47.17
50592;BME280;36548;50.506;30.834;2022-08-19T05:56:10;99780.48;;;26.78;47.01
50592;BME280;36548;50.506;30.834;2022-08-19T05:57:26;99785.29;;;26.96;46.78
50592;BME280;36548;50.506;30.834;2022-08-19T05:58:38;99777.47;;;26.93;46.46
50592;BME280;36548;50.506;30.834;2022-08-19T05:59:49;99779.16;;;27.00;46.42
50592;BME280;36548;50.506;30.834;2022-08-19T06:01:03;99780.57;;;27.10;46.26
50592;BME280;36548;50.506;30.834;2022-08-19T06:02:20;99772.25;;;27.23;45.57
50592;BME280;36548;50.506;30.834;2022-08-19T06:03:33;99775.83;;;26.85;46.15
50592;BME280;36548;50.506;30.834;2022-08-19T06:04:43;99779.48;;;26.59;46.80
50592;BME280;36548;50.506;30.834;2022-08-19T06:06:05;99773.37;;;26.43;47.42
50592;BME280;36548;50.506;30.834;2022-08-19T06:07:14;99781.42;;;26.45;47.49
50592;BME280;36548;50.506;30.834;2022-08-19T06:08:27;99781.14;;;26.60;47.63
50592;BME280;36548;50.506;30.834;2022-08-19T06:09:43;99782.95;;;26.07;48.51
50592;BME280;36548;50.506;30.834;2022-08-19T06:10:55;99780.17;;;26.14;48.12
50592;BME280;36548;50.506;30.834;2022-08-19T06:12:05;99789.06;;;26.29;47.70
50592;BME280;36548;50.506;30.834;2022-08-19T06:13:22;99788.19;;;26.49;47.17
50592;BME280;36548;50.506;30.834;2022-08-19T06:14:35;99789.06;;;26.09;47.92
50592;BME280;36548;50.506;30.834;2022-08-19T06:15:47;99787.37;;;26.22;48.05
50592;BME280;36548;50.506;30.834;2022-08-19T06:16:57;99793.92;;;26.27;47.79
50592;BME280;36548;50.506;30.834;2022-08-19T06:18:10;99803.65;;;26.43;48.14
50592;BME280;36548;50.506;30.834;2022-08-19T06:19:29;99799.15;;;26.76;47.04
50592;BME280;36548;50.506;30.834;2022-08-19T06:20:40;99804.86;;;26.81;47.04
50592;BME280;36548;50.506;30.834;2022-08-19T06:21:53;99804.16;;;26.99;46.81
50592;BME280;36548;50.506;30.834;2022-08-19T06:23:08;99800.73;;;27.03;46.34
50592;BME280;36548;50.506;30.834;2022-08-19T06:24:23;99806.53;;;26.82;46.70
50592;BME280;36548;50.506;30.834;2022-08-19T06:25:33;99804.57;;;26.96;46.82
50592;BME280;36548;50.506;30.834;2022-08-19T06:26:44;99814.39;;;26.65;46.79
50592;BME280;36548;50.506;30.834;2022-08-19T06:27:55;99800.84;;;26.77;47.29
50592;BME280;36548;50.506;30.834;2022-08-19T06:29:07;99802.26;;;26.93;46.87
50592;BME280;36548;50.506;30.834;2022-08-19T06:30:21;99804.16;;;26.99;46.87
50592;BME280;36548;50.506;30.834;2022-08-19T06:31:40;99801.30;;;27.19;46.53